Time;durP1;ratioP1;P1;durP2;ratioP2;P2;SDS_P1;SDS_P2;PMS_P1;PMS_P2;Temp;Humidity;BMP_temperature;BMP_pressure;BME280_temperature;BME280_humidity;BME280_pressure;Samples;Min_cycle;Max_cycle;Signal;HPM_P1;HPM_P2
2023/03/27 00:02:14;;;;;;;1.48;1.00;;;;;;;8.84;48.43;98491.50;6108366;23;20445;-86
2023/03/27 00:04:42;;;;;;;4.15;1.00;;;;;;;8.86;48.18;98487.47;6132154;23;19985;-86
2023/03/27 00:07:08;;;;;;;2.95;1.70;;;;;;;8.80;51.42;98479.72;6109363;23;20006;-86
2023/03/27 00:09:36;;;;;;;3.35;1.50;;;;;;;8.62;52.86;98473.91;6108473;23;20056;-86
2023/03/27 00:12:02;;;;;;;2.97;1.60;;;;;;;8.60;53.76;98478.75;6132258;23;20156;-86
2023/03/27 00:14:29;;;;;;;3.75;1.70;;;;;;;8.35;54.44;98470.84;6108428;23;20001;-86
2023/03/27 00:16:58;;;;;;;3.22;1.75;;;;;;;8.10;54.78;98449.22;6132479;23;20566;-86
2023/03/27 00:19:26;;;;;;;2.22;1.42;;;;;;;8.13;54.93;98463.94;6109462;23;20033;-86
2023/03/27 00:21:53;;;;;;;2.95;1.17;;;;;;;7.98;55.14;98454.09;6108880;23;20013;-86
2023/03/27 00:24:19;;;;;;;2.20;1.40;;;;;;;7.95;55.21;98443.94;6108395;23;19998;-86
2023/03/27 00:26:45;;;;;;;1.75;1.05;;;;;;;7.95;54.96;98445.78;6132413;23;20001;-86
2023/03/27 00:29:12;;;;;;;2.15;1.27;;;;;;;7.87;55.29;98439.13;6109210;23;20017;-86
2023/03/27 00:31:37;;;;;;;2.40;1.23;;;;;;;7.91;55.36;98432.16;6109315;23;20007;-86
2023/03/27 00:34:03;;;;;;;2.08;1.20;;;;;;;8.03;54.13;98446.03;6107142;23;20117;-86
2023/03/27 00:36:30;;;;;;;1.70;1.08;;;;;;;8.10;51.08;98435.00;6132459;23;20006;-86
2023/03/27 00:38:59;;;;;;;1.48;1.08;;;;;;;8.14;53.05;98425.34;6108789;23;20028;-86
2023/03/27 00:41:26;;;;;;;1.38;0.90;;;;;;;7.97;54.39;98422.19;6107881;23;20452;-86
2023/03/27 00:43:52;;;;;;;2.72;1.40;;;;;;;7.88;54.97;98430.78;6108816;23;20009;-86
2023/03/27 00:46:51;;;;;;;2.05;1.08;;;;;;;7.63;55.13;98423.66;6084181;23;20005;-86
2023/03/27 00:49:17;;;;;;;1.33;1.00;;;;;;;7.55;55.25;98424.19;6120241;23;20005;-86
2023/03/27 00:51:45;;;;;;;3.22;1.30;;;;;;;7.60;55.00;98429.56;6107813;23;20036;-86
2023/03/27 00:54:15;;;;;;;2.63;1.30;;;;;;;7.55;55.28;98418.03;6132187;23;20013;-86
2023/03/27 00:56:42;;;;;;;1.85;1.20;;;;;;;7.47;56.43;98422.06;6157683;23;20005;-86
2023/03/27 00:59:13;;;;;;;2.55;1.48;;;;;;;7.31;56.83;98405.25;6157307;23;20005;-86
2023/03/27 01:01:42;;;;;;;1.63;1.25;;;;;;;7.33;56.46;98408.47;6134244;23;20495;-86
2023/03/27 01:04:08;;;;;;;3.05;1.23;;;;;;;7.29;56.75;98408.19;6108277;23;19993;-86
2023/03/27 01:06:34;;;;;;;2.00;1.23;;;;;;;7.31;56.34;98402.56;6107260;23;20005;-86
2023/03/27 01:08:59;;;;;;;1.30;1.00;;;;;;;7.26;56.21;98405.25;6131390;23;20329;-86
2023/03/27 01:11:28;;;;;;;2.20;1.35;;;;;;;7.15;56.96;98392.97;6108198;23;20008;-86
2023/03/27 01:13:56;;;;;;;2.00;1.27;;;;;;;7.15;56.93;98388.41;6156883;23;20009;-86
2023/03/27 01:16:40;;;;;;;2.63;1.42;;;;;;;7.12;57.28;98380.09;6156644;23;20348;-86
2023/03/27 01:19:43;;;;;;;2.80;1.30;;;;;;;7.08;58.05;98382.53;6156434;23;20499;-86
2023/03/27 01:22:08;;;;;;;1.27;0.95;;;;;;;7.02;57.78;98367.56;6157075;23;20006;-86
2023/03/27 01:25:06;;;;;;;2.42;1.30;;;;;;;7.05;57.45;98367.81;6157282;23;20060;-86
2023/03/27 01:27:46;;;;;;;2.45;1.10;;;;;;;6.99;57.86;98360.88;6132386;23;20036;-86
2023/03/27 01:30:37;;;;;;;2.72;1.02;;;;;;;6.95;57.77;98350.97;6134058;23;20024;-86
2023/03/27 01:33:25;;;;;;;1.67;1.20;;;;;;;7.03;57.65;98350.41;6107470;23;20005;-86
2023/03/27 01:36:33;;;;;;;2.85;1.40;;;;;;;7.04;57.68;98339.44;6156724;23;20458;-86
2023/03/27 01:39:21;;;;;;;4.05;1.60;;;;;;;7.04;57.84;98338.66;6135231;23;20002;-86
2023/03/27 01:42:14;;;;;;;2.60;1.48;;;;;;;7.04;57.57;98336.78;6144191;23;20009;-86
2023/03/27 01:45:05;;;;;;;3.65;1.10;;;;;;;6.98;57.99;98308.41;6135840;23;20020;-86
2023/03/27 01:47:34;;;;;;;1.83;1.40;;;;;;;7.12;57.83;98334.59;6157833;23;20002;-86
2023/03/27 01:50:28;;;;;;;2.10;1.20;;;;;;;7.17;57.53;98334.59;6156254;23;20055;-85
2023/03/27 01:53:05;;;;;;;2.00;1.42;;;;;;;7.15;57.62;98324.16;6132079;23;20048;-86
2023/03/27 01:55:35;;;;;;;1.77;1.27;;;;;;;7.08;57.81;98313.75;6108250;23;20021;-86
2023/03/27 01:58:07;;;;;;;5.22;1.70;;;;;;;7.18;57.44;98318.28;6132545;23;20012;-86
2023/03/27 02:00:34;;;;;;;2.58;1.67;;;;;;;7.03;57.83;98296.88;6131785;23;20067;-86
2023/03/27 02:03:12;;;;;;;3.00;1.58;;;;;;;7.20;57.57;98310.78;6108282;23;20011;-86
2023/03/27 02:06:17;;;;;;;2.58;1.48;;;;;;;7.17;58.17;98299.81;6131490;23;20010;-86
2023/03/27 02:09:14;;;;;;;2.63;1.40;;;;;;;7.22;57.50;98305.94;6115380;23;20321;-86
2023/03/27 02:11:45;;;;;;;3.78;1.70;;;;;;;7.18;57.69;98310.25;6067642;23;20002;-86
2023/03/27 02:14:17;;;;;;;3.50;1.67;;;;;;;7.22;57.79;98299.78;5997475;23;20455;-86
2023/03/27 02:16:45;;;;;;;4.03;1.77;;;;;;;7.21;57.20;98284.81;6020404;23;20010;-86
2023/03/27 02:19:18;;;;;;;3.13;1.70;;;;;;;7.17;57.90;98281.84;6020702;23;20014;-86
2023/03/27 02:21:46;;;;;;;3.80;2.17;;;;;;;7.28;57.08;98286.13;6069366;23;20013;-86
2023/03/27 02:24:15;;;;;;;3.60;1.65;;;;;;;7.32;57.72;98283.69;6067584;23;20398;-86
2023/03/27 02:26:41;;;;;;;3.17;1.70;;;;;;;7.37;57.02;98277.53;6067660;23;20011;-86
2023/03/27 02:29:32;;;;;;;3.05;1.60;;;;;;;7.49;56.77;98284.16;6044277;23;20046;-86
2023/03/27 02:32:22;;;;;;;2.10;1.70;;;;;;;7.38;57.17;98276.44;6068298;23;20453;-86
2023/03/27 02:35:09;;;;;;;2.95;1.67;;;;;;;7.45;57.16;98280.44;6067440;23;20143;-86
2023/03/27 02:37:50;;;;;;;2.90;1.80;;;;;;;7.56;56.51;98272.34;6023159;23;20323;-86
2023/03/27 02:40:21;;;;;;;4.00;1.73;;;;;;;7.57;56.40;98271.25;6045305;23;20011;-86
2023/03/27 02:42:56;;;;;;;2.85;1.73;;;;;;;7.69;56.27;98269.03;6092349;23;20389;-86
2023/03/27 02:45:47;;;;;;;3.60;1.83;;;;;;;7.76;56.35;98258.00;6127827;23;20009;-86
2023/03/27 02:48:28;;;;;;;3.70;1.77;;;;;;;7.63;56.70;98238.00;6128111;23;20014;-87
2023/03/27 02:50:58;;;;;;;4.70;1.90;;;;;;;7.79;56.96;98246.75;6126798;23;20026;-86
2023/03/27 02:53:24;;;;;;;5.45;1.85;;;;;;;7.78;56.48;98232.56;6125632;23;20056;-86
2023/03/27 02:55:53;;;;;;;2.28;1.55;;;;;;;7.77;56.58;98238.19;6102496;23;20002;-86
2023/03/27 02:58:29;;;;;;;2.55;1.70;;;;;;;7.89;56.39;98230.59;6102867;23;20009;-86
2023/03/27 03:00:55;;;;;;;2.47;1.35;;;;;;;7.93;56.26;98217.44;6106175;23;20001;-86
2023/03/27 03:03:26;;;;;;;3.03;1.10;;;;;;;8.18;50.24;98227.97;6080816;23;20017;-86
2023/03/27 03:05:55;;;;;;;1.08;0.73;;;;;;;8.68;45.68;98211.72;6130174;23;20006;-87
2023/03/27 03:08:21;;;;;;;1.30;0.80;;;;;;;9.14;44.64;98221.13;6105237;23;20503;-86
2023/03/27 03:10:46;;;;;;;2.38;0.88;;;;;;;9.49;43.68;98203.75;6081422;23;20002;-86
2023/03/27 03:13:13;;;;;;;4.85;0.82;;;;;;;9.74;43.00;98199.13;6081376;23;20013;-86
2023/03/27 03:15:39;;;;;;;1.00;0.90;;;;;;;10.10;42.38;98210.88;6106296;23;20006;-86
2023/03/27 03:18:06;;;;;;;1.05;0.80;;;;;;;10.46;42.05;98221.09;6105790;23;20005;-86
2023/03/27 03:20:36;;;;;;;3.33;0.85;;;;;;;10.61;42.13;98195.81;6109586;23;20322;-86
2023/03/27 03:23:02;;;;;;;5.05;1.10;;;;;;;10.78;42.03;98195.22;6106578;23;20001;-86
2023/03/27 03:25:30;;;;;;;2.15;1.10;;;;;;;10.99;41.57;98190.22;6129502;23;20001;-86
2023/03/27 03:27:58;;;;;;;3.00;1.10;;;;;;;11.16;41.79;98188.81;6105352;23;20024;-86
2023/03/27 03:30:27;;;;;;;1.98;1.00;;;;;;;11.30;42.07;98182.31;6105967;23;20025;-87
2023/03/27 03:32:54;;;;;;;1.75;1.30;;;;;;;11.41;42.07;98171.28;6131537;23;20021;-86
2023/03/27 03:35:22;;;;;;;2.30;1.10;;;;;;;11.61;42.41;98180.84;6109746;23;20524;-87
2023/03/27 03:37:50;;;;;;;1.73;1.30;;;;;;;11.65;42.01;98161.03;6134103;23;20012;-87
2023/03/27 03:40:16;;;;;;;1.65;1.13;;;;;;;11.71;42.58;98154.44;6135934;23;20020;-87
2023/03/27 03:42:46;;;;;;;2.28;1.40;;;;;;;11.87;42.50;98152.19;6110501;23;20024;-87
2023/03/27 03:45:12;;;;;;;1.55;1.20;;;;;;;11.92;42.97;98156.69;6134545;23;20052;-87
2023/03/27 03:47:38;;;;;;;2.00;1.52;;;;;;;12.01;43.13;98154.81;6111287;23;20328;-87
2023/03/27 03:50:06;;;;;;;2.67;1.70;;;;;;;12.02;43.67;98153.72;6110967;23;20006;-88
2023/03/27 03:52:33;;;;;;;2.45;1.52;;;;;;;12.10;43.74;98154.91;6134627;23;19997;-87
2023/03/27 03:54:58;;;;;;;3.47;2.63;;;;;;;12.15;44.09;98143.97;6133363;23;20356;-87
2023/03/27 03:57:24;;;;;;;2.17;1.42;;;;;;;12.24;44.55;98146.69;6109733;23;20001;-87
2023/03/27 03:59:50;;;;;;;3.33;2.15;;;;;;;12.32;45.07;98154.03;6109845;23;20028;-87
2023/03/27 04:02:27;;;;;;;3.80;2.00;;;;;;;12.39;45.08;98142.81;6110294;23;20088;-87
2023/03/27 04:04:56;;;;;;;4.40;2.35;;;;;;;12.39;45.59;98134.69;6114164;23;19994;-87
2023/03/27 04:07:23;;;;;;;7.22;2.38;;;;;;;12.43;45.70;98124.88;6110603;23;20410;-87
2023/03/27 04:09:50;;;;;;;3.78;2.08;;;;;;;12.53;46.49;98125.41;6134986;23;19997;-88
2023/03/27 04:12:16;;;;;;;3.42;2.13;;;;;;;12.48;46.52;98111.25;6108916;23;19997;-87
2023/03/27 04:14:42;;;;;;;4.15;1.90;;;;;;;12.59;46.45;98127.97;6085052;23;19993;-87
2023/03/27 04:17:10;;;;;;;3.30;1.80;;;;;;;12.58;46.85;98112.88;6156459;23;20005;-87
2023/03/27 04:19:36;;;;;;;4.07;2.45;;;;;;;12.61;47.39;98107.63;6108311;23;19998;-88
2023/03/27 04:22:04;;;;;;;4.47;2.58;;;;;;;12.71;47.18;98114.66;6133280;23;20002;-87
2023/03/27 04:24:29;;;;;;;4.63;2.40;;;;;;;12.72;47.07;98103.56;6110909;23;20006;-87
2023/03/27 04:27:00;;;;;;;5.82;2.42;;;;;;;12.83;47.47;98114.06;6109214;23;20002;-88
2023/03/27 04:29:29;;;;;;;4.40;2.53;;;;;;;12.87;47.47;98098.81;6110634;23;20024;-88
2023/03/27 04:32:18;;;;;;;3.20;2.20;;;;;;;12.98;47.67;98102.81;6133483;23;20063;-89
2023/03/27 04:34:47;;;;;;;3.95;3.00;;;;;;;13.01;47.94;98104.06;6069234;23;20026;-87
2023/03/27 04:37:14;;;;;;;3.58;2.83;;;;;;;13.08;47.66;98102.50;6068975;23;20077;-87
2023/03/27 04:39:45;;;;;;;4.63;3.20;;;;;;;13.04;47.69;98084.53;6069614;23;20082;-88
2023/03/27 04:42:11;;;;;;;5.18;2.97;;;;;;;13.14;47.72;98093.13;6045442;23;20022;-88
2023/03/27 04:44:37;;;;;;;4.38;2.80;;;;;;;13.21;47.48;98098.06;6045331;23;20007;-88
2023/03/27 04:47:07;;;;;;;5.15;3.15;;;;;;;13.30;47.43;98087.28;6046127;23;20457;-87
2023/03/27 04:49:37;;;;;;;4.88;2.97;;;;;;;13.19;47.44;98061.66;6050316;23;20007;-88
2023/03/27 04:52:08;;;;;;;3.10;2.80;;;;;;;13.30;47.99;98093.50;6024890;23;20010;-87
2023/03/27 04:54:35;;;;;;;3.33;2.72;;;;;;;13.37;47.96;98101.13;6049236;23;20018;-86
2023/03/27 04:57:02;;;;;;;4.25;3.05;;;;;;;13.24;47.88;98070.41;6070369;23;20007;-87
2023/03/27 04:59:32;;;;;;;4.70;3.10;;;;;;;13.39;48.15;98085.38;6022784;23;20030;-87
2023/03/27 05:02:01;;;;;;;6.63;3.70;;;;;;;13.43;48.17;98088.25;6070503;23;20060;-87
2023/03/27 05:04:28;;;;;;;6.07;3.15;;;;;;;13.41;48.29;98085.06;6024136;23;20007;-87
2023/03/27 05:06:55;;;;;;;4.43;2.63;;;;;;;13.34;48.69;98077.41;6104755;23;20010;-88
2023/03/27 05:09:21;;;;;;;6.10;3.67;;;;;;;13.20;49.19;98057.84;6127271;23;20041;-88
2023/03/27 05:11:48;;;;;;;4.32;2.83;;;;;;;13.30;49.21;98074.59;6127812;23;20002;-88
2023/03/27 05:14:23;;;;;;;6.35;3.00;;;;;;;13.31;49.35;98067.25;6130094;23;20056;-86
2023/03/27 05:16:51;;;;;;;5.13;3.17;;;;;;;13.21;49.61;98065.63;6129317;23;20409;-84
2023/03/27 05:19:18;;;;;;;5.72;3.97;;;;;;;13.38;49.66;98086.47;6082451;23;20044;-87
2023/03/27 05:21:48;;;;;;;6.90;3.55;;;;;;;13.43;49.76;98080.16;6132971;23;20337;-88
2023/03/27 05:24:15;;;;;;;8.07;4.10;;;;;;;13.42;49.52;98073.13;6130082;23;19994;-88
2023/03/27 05:26:53;;;;;;;5.45;3.53;;;;;;;13.43;49.93;98059.31;6079942;23;20033;-89
2023/03/27 05:29:18;;;;;;;11.48;3.60;;;;;;;13.54;49.49;98049.72;6107079;23;19997;-88
2023/03/27 05:31:44;;;;;;;6.10;3.13;;;;;;;13.48;49.85;98048.31;6104473;23;20050;-86
2023/03/27 05:34:10;;;;;;;5.03;2.63;;;;;;;13.39;50.17;98038.63;6101002;23;20429;-88
2023/03/27 05:36:36;;;;;;;6.43;4.50;;;;;;;13.54;50.32;98055.16;6101913;23;20020;-89
2023/03/27 05:42:12;;;;;;;8.45;4.78;;;;;;;13.52;50.20;98019.50;6126784;23;20009;-90
2023/03/27 05:44:39;;;;;;;7.28;3.08;;;;;;;13.51;49.98;98028.75;6102978;23;20084;-87
2023/03/27 05:47:05;;;;;;;4.10;2.75;;;;;;;13.57;50.45;98031.28;6104225;23;20006;-86
2023/03/27 05:49:33;;;;;;;9.48;3.70;;;;;;;13.67;50.37;98044.47;6128635;23;20016;-87
2023/03/27 05:52:26;;;;;;;6.03;3.10;;;;;;;13.57;50.66;98055.63;6105196;23;20006;-88
2023/03/27 06:02:11;;;;;;;8.35;3.55;;;;;;;13.66;50.85;98029.38;6130195;23;20041;-88
2023/03/27 06:04:41;;;;;;;12.00;4.63;;;;;;;13.69;50.29;97998.94;6130675;23;19985;-89
2023/03/27 06:07:24;;;;;;;8.02;3.50;;;;;;;13.85;49.91;98010.06;6080281;23;20489;-89
2023/03/27 06:09:50;;;;;;;4.05;3.00;;;;;;;13.91;49.50;97996.03;6123161;23;20013;-95
2023/03/27 06:12:16;;;;;;;7.18;3.40;;;;;;;14.08;49.48;98002.47;6113492;23;20290;-94
2023/03/27 06:14:42;;;;;;;6.75;3.38;;;;;;;14.18;48.98;97999.41;6113624;23;20010;-95
2023/03/27 06:24:09;;;;;;;10.13;5.05;;;;;;;14.69;47.80;97978.59;6139787;23;20021;-95
2023/03/27 06:26:35;;;;;;;9.68;3.58;;;;;;;14.46;48.22;97959.09;6159199;23;20033;-94
2023/03/27 06:29:03;;;;;;;6.40;3.38;;;;;;;14.45;48.14;97941.28;6139554;23;20001;-96
2023/03/27 06:31:36;;;;;;;4.47;3.28;;;;;;;14.78;47.62;97947.94;6091228;23;20019;-96
2023/03/27 06:34:18;;;;;;;5.03;2.92;;;;;;;14.73;47.50;97941.59;6117752;23;20022;-93
2023/03/27 06:36:51;;;;;;;7.05;3.95;;;;;;;14.91;47.55;97936.81;6091215;23;20001;-93
2023/03/27 06:39:20;;;;;;;10.65;3.65;;;;;;;15.14;46.66;97937.22;6090331;23;20010;-96
2023/03/27 06:41:55;;;;;;;27.63;5.28;;;;;;;15.19;46.29;97919.97;6114918;23;20018;-96
2023/03/27 06:44:33;;;;;;;10.27;3.47;;;;;;;15.39;45.96;97941.94;6117205;23;19998;-95
2023/03/27 06:47:02;;;;;;;4.90;3.10;;;;;;;15.61;45.45;97930.69;6117850;23;20006;-94
2023/03/27 06:49:28;;;;;;;5.65;3.30;;;;;;;15.81;45.12;97928.25;6108326;23;20005;-92
2023/03/27 06:51:53;;;;;;;5.18;3.30;;;;;;;15.99;45.25;97923.41;6109991;23;20025;-96
2023/03/27 06:54:19;;;;;;;3.33;2.83;;;;;;;16.26;44.49;97930.84;6108681;23;20002;-93
2023/03/27 06:56:45;;;;;;;6.82;3.35;;;;;;;16.53;43.30;97921.16;6109218;23;20002;-92
2023/03/27 06:59:10;;;;;;;10.90;4.57;;;;;;;16.80;43.42;97929.69;6108621;23;20013;-93
2023/03/27 07:01:42;;;;;;;4.50;2.80;;;;;;;16.88;42.15;97915.19;6109059;23;20089;-94
2023/03/27 07:04:13;;;;;;;6.80;2.75;;;;;;;16.83;42.14;97890.19;6139108;23;20452;-96
2023/03/27 07:06:39;;;;;;;3.70;2.90;;;;;;;17.01;42.55;97907.78;6132228;23;20002;-94
2023/03/27 07:12:55;;;;;;;5.57;3.75;;;;;;;17.41;41.69;97903.38;6141753;23;20033;-96
2023/03/27 07:15:50;;;;;;;4.85;2.80;;;;;;;17.14;41.59;97868.50;6136308;23;20037;-95
2023/03/27 07:18:24;;;;;;;6.55;3.03;;;;;;;17.02;42.27;97874.03;6075145;23;20018;-95
2023/03/27 07:23:56;;;;;;;8.63;4.70;;;;;;;17.35;41.77;97879.16;6056000;23;20010;-93
2023/03/27 07:26:32;;;;;;;4.07;2.90;;;;;;;17.42;41.17;97866.88;6052667;23;20002;-96
2023/03/27 07:29:53;;;;;;;5.07;3.75;;;;;;;17.35;40.96;97859.31;6056021;23;20442;-96
2023/03/27 07:32:43;;;;;;;6.20;3.75;;;;;;;17.38;41.11;97858.59;6003677;23;20011;-95
2023/03/27 07:35:17;;;;;;;6.47;3.20;;;;;;;17.37;41.25;97846.94;6069432;23;20022;-94
2023/03/27 07:37:43;;;;;;;7.97;2.80;;;;;;;17.18;41.44;97835.94;6083131;23;20002;-95
2023/03/27 07:40:49;;;;;;;4.20;2.85;;;;;;;17.44;40.59;97823.78;6082820;23;20081;-95
2023/03/27 07:43:15;;;;;;;4.95;2.70;;;;;;;17.45;40.73;97828.88;6045304;23;20005;-88
2023/03/27 07:45:41;;;;;;;3.10;2.72;;;;;;;17.48;40.56;97843.69;6112048;23;20134;-96
2023/03/27 07:48:07;;;;;;;5.97;2.83;;;;;;;17.21;41.24;97812.72;6115787;23;20359;-95
2023/03/27 07:50:49;;;;;;;;;;;;;;;;;;;;;
2023/03/27 07:53:18;;;;;;;3.15;2.50;;;;;;;17.35;40.65;97796.75;6126388;23;20025;-96
2023/03/27 07:55:45;;;;;;;4.15;3.20;;;;;;;17.54;40.25;97788.66;6116678;23;20025;-95
2023/03/27 07:58:10;;;;;;;4.53;2.80;;;;;;;17.68;40.33;97801.00;6089510;23;20002;-95
2023/03/27 08:00:42;;;;;;;6.18;2.90;;;;;;;17.70;39.81;97793.25;6092622;23;20031;-95
2023/03/27 08:03:29;;;;;;;3.40;2.60;;;;;;;18.05;39.03;97808.84;6118399;23;19998;-96
2023/03/27 08:10:10;;;;;;;7.50;2.97;;;;;;;18.12;38.70;97785.28;6074490;23;20007;-91
2023/03/27 08:12:41;;;;;;;8.20;3.33;;;;;;;18.11;38.85;97772.78;6017335;23;20075;-88
2023/03/27 08:15:26;;;;;;;8.30;3.08;;;;;;;17.97;38.47;97761.59;6017966;23;20007;-91
2023/03/27 08:17:53;;;;;;;7.97;3.53;;;;;;;18.08;38.06;97762.63;6018432;23;20461;-90
2023/03/27 08:20:19;;;;;;;4.75;3.67;;;;;;;18.17;38.27;97752.28;6040864;23;20473;-90
2023/03/27 08:22:49;;;;;;;5.70;3.65;;;;;;;18.12;38.49;97746.38;6105545;23;20008;-90
2023/03/27 08:25:18;;;;;;;4.28;3.40;;;;;;;18.30;38.66;97769.31;6109061;23;19997;-89
2023/03/27 08:27:45;;;;;;;7.90;3.60;;;;;;;18.42;38.19;97762.91;6090167;23;20001;-89
2023/03/27 08:30:13;;;;;;;4.35;3.10;;;;;;;18.04;39.26;97747.34;6118540;23;20013;-87
2023/03/27 08:32:40;;;;;;;6.85;3.55;;;;;;;17.58;40.02;97756.84;6119981;23;20008;-86
2023/03/27 08:35:18;;;;;;;8.05;5.05;;;;;;;17.56;40.15;97725.72;6139179;23;20013;-87
2023/03/27 08:37:43;;;;;;;5.93;3.25;;;;;;;17.41;40.50;97745.56;6141670;23;20005;-88
2023/03/27 08:40:37;;;;;;;5.32;3.50;;;;;;;17.09;41.15;97734.72;6113920;23;20008;-91
2023/03/27 08:43:06;;;;;;;6.22;4.38;;;;;;;17.35;41.42;97732.25;6141347;23;20009;-91
2023/03/27 08:45:45;;;;;;;5.93;4.70;;;;;;;17.23;41.61;97756.03;6113834;23;20036;-92
2023/03/27 08:48:47;;;;;;;;;;;;;;;;;;;;;
2023/03/27 08:51:24;;;;;;;5.72;3.30;;;;;;;17.34;41.13;97722.47;6140719;23;20028;-90
2023/03/27 08:54:03;;;;;;;9.32;4.00;;;;;;;17.33;41.10;97728.31;6113731;23;20005;-88
2023/03/27 08:56:32;;;;;;;8.55;4.05;;;;;;;17.59;39.93;97727.69;6118398;23;20021;-90
2023/03/27 08:58:58;;;;;;;4.93;3.47;;;;;;;17.62;41.17;97705.22;6112893;23;20004;-90
2023/03/27 09:01:44;;;;;;;6.47;4.72;;;;;;;18.13;39.42;97734.31;6111846;23;20006;-93
2023/03/27 09:04:16;;;;;;;4.20;3.15;;;;;;;18.32;38.90;97734.31;6137082;23;20008;-88
2023/03/27 09:07:06;;;;;;;5.15;3.30;;;;;;;18.48;38.35;97730.69;6136409;23;20432;-90
2023/03/27 09:09:58;;;;;;;9.13;5.18;;;;;;;18.50;38.38;97739.31;6113785;23;20001;-88
2023/03/27 09:12:47;;;;;;;6.95;3.88;;;;;;;18.65;38.33;97729.44;6137048;23;20001;-87
2023/03/27 09:15:16;;;;;;;4.90;3.47;;;;;;;18.58;38.27;97713.75;6159660;23;20009;-89
2023/03/27 09:17:52;;;;;;;6.22;3.38;;;;;;;18.55;38.49;97720.72;6137803;23;20001;-93
2023/03/27 09:20:24;;;;;;;4.57;3.28;;;;;;;18.35;38.22;97681.81;6116246;23;20001;-93
2023/03/27 09:22:55;;;;;;;;;;;;;;;18.56;38.28;97699.69;6147257;23;20002;-96
2023/03/27 09:34:40;;;;;;;7.82;3.85;;;;;;;18.75;38.08;97647.03;6171012;23;20049;-96
2023/03/27 09:37:15;;;;;;;6.43;3.53;;;;;;;19.11;37.02;97651.16;6115935;23;20018;-95
2023/03/27 09:43:31;;;;;;;4.80;3.67;;;;;;;18.89;37.54;97630.94;6114919;23;20064;-96
2023/03/27 09:46:52;;;;;;;4.97;3.50;;;;;;;19.23;38.05;97655.59;6156425;23;20018;-95
2023/03/27 09:53:04;;;;;;;5.43;3.65;;;;;;;19.24;38.31;97657.19;6228293;22;20013;-95
2023/03/27 10:06:47;;;;;;;14.77;6.00;;;;;;;19.17;38.34;97613.41;6125676;23;21169;-94
2023/03/27 10:10:18;;;;;;;;;;;;;;;;;;;;;
2023/03/27 10:13:01;;;;;;;6.00;3.85;;;;;;;19.03;37.69;97596.84;6109248;23;20037;-92
2023/03/27 10:15:34;;;;;;;7.43;4.00;;;;;;;18.92;38.15;97624.75;6108615;23;20033;-93
2023/03/27 10:18:48;;;;;;;6.22;3.80;;;;;;;18.69;38.77;97602.16;6156354;23;20013;-90
2023/03/27 10:21:52;;;;;;;5.63;3.67;;;;;;;18.84;38.76;97611.38;6060779;23;20023;-93
2023/03/27 10:24:44;;;;;;;;;;;;;;;;;;;;;
2023/03/27 10:28:02;;;;;;;4.75;3.55;;;;;;;19.47;37.42;97599.00;6114392;23;20006;-96
2023/03/27 10:30:33;;;;;;;4.30;3.40;;;;;;;19.48;37.00;97576.00;6102784;23;20021;-88
2023/03/27 10:37:43;;;;;;;6.78;4.47;;;;;;;19.85;36.63;97567.06;5959063;23;20076;-95
2023/03/27 10:40:35;;;;;;;;;;;;;;;;;;;;;
2023/03/27 10:46:29;;;;;;;;;;;;;;;20.29;36.26;97553.44;6064496;23;20009;-89
2023/03/27 10:49:29;;;;;;;12.20;4.27;;;;;;;20.23;36.16;97552.22;6068665;23;19905;-88
2023/03/27 10:52:35;;;;;;;5.25;3.50;;;;;;;20.19;36.58;97556.84;6057966;23;20259;-90
2023/03/27 10:55:33;;;;;;;6.13;3.58;;;;;;;19.97;36.36;97562.13;6012978;23;20008;-89
2023/03/27 10:58:25;;;;;;;10.23;3.75;;;;;;;19.70;36.29;97541.53;6013483;23;20063;-90
2023/03/27 11:01:05;;;;;;;6.93;3.67;;;;;;;19.62;36.34;97543.41;5982400;23;20003;-90
2023/03/27 11:03:52;;;;;;;4.93;3.47;;;;;;;19.61;36.34;97555.50;6015872;23;20012;-91
2023/03/27 11:06:27;;;;;;;5.35;3.17;;;;;;;19.71;36.12;97568.47;6017032;23;20004;-89
2023/03/27 11:09:10;;;;;;;5.03;3.20;;;;;;;19.56;36.27;97561.28;5993923;23;20039;-89
2023/03/27 11:12:13;;;;;;;7.40;3.90;;;;;;;19.46;36.38;97567.38;6078949;23;20041;-90
2023/03/27 11:14:58;;;;;;;8.85;3.92;;;;;;;19.46;36.63;97575.56;6019383;23;20025;-92
2023/03/27 11:17:31;;;;;;;7.18;3.72;;;;;;;19.28;36.70;97564.44;6076467;23;20002;-87
2023/03/27 11:20:05;;;;;;;6.15;3.55;;;;;;;18.88;37.66;97563.91;6078179;23;20002;-89
2023/03/27 11:23:05;;;;;;;7.25;3.45;;;;;;;18.75;37.99;97557.06;6082069;23;20006;-88
2023/03/27 11:25:39;;;;;;;4.65;3.30;;;;;;;19.00;37.48;97573.81;6120359;23;19998;-91
2023/03/27 11:28:42;;;;;;;4.97;3.35;;;;;;;19.13;37.67;97556.09;6112829;23;20034;-91
2023/03/27 11:31:33;;;;;;;8.13;3.38;;;;;;;19.15;37.98;97558.41;6134609;23;20005;-88
2023/03/27 11:34:36;;;;;;;4.68;3.60;;;;;;;19.13;37.90;97545.16;6135752;23;20036;-91
2023/03/27 11:37:38;;;;;;;6.20;3.50;;;;;;;18.95;37.82;97531.28;6134793;23;20006;-90
2023/03/27 11:40:43;;;;;;;9.85;3.55;;;;;;;19.01;37.42;97533.69;6063098;23;20006;-90
2023/03/27 11:43:13;;;;;;;8.65;3.63;;;;;;;18.91;37.89;97513.31;6101518;23;20353;-90
2023/03/27 11:46:10;;;;;;;7.97;3.50;;;;;;;18.95;38.48;97523.09;6108962;23;20002;-90
2023/03/27 11:49:00;;;;;;;4.78;3.60;;;;;;;19.03;38.72;97532.19;6135832;23;20349;-89
2023/03/27 11:51:47;;;;;;;8.25;4.20;;;;;;;19.05;38.84;97526.31;6132647;23;20012;-89
2023/03/27 11:54:27;;;;;;;5.65;3.60;;;;;;;18.80;38.81;97509.63;6134983;23;20065;-88
2023/03/27 11:56:54;;;;;;;4.63;3.85;;;;;;;18.97;38.74;97509.09;6105977;23;20013;-89
2023/03/27 12:00:06;;;;;;;7.65;3.67;;;;;;;18.84;39.09;97492.16;6082373;23;20009;-90
2023/03/27 12:06:15;;;;;;;7.30;4.07;;;;;;;18.95;39.15;97492.31;6044119;23;19912;-91
2023/03/27 12:08:55;;;;;;;10.82;4.75;;;;;;;19.26;39.07;97510.25;6015391;23;20348;-92
2023/03/27 12:18:47;;;;;;;4.30;3.50;;;;;;;19.29;38.62;97503.25;6022764;23;20004;-88
2023/03/27 12:22:03;;;;;;;7.45;4.45;;;;;;;19.18;38.47;97479.34;6158920;23;20546;-89
2023/03/27 12:24:48;;;;;;;5.88;3.75;;;;;;;19.29;38.69;97484.94;6134472;23;20423;-92
2023/03/27 12:28:06;;;;;;;;;;;;;;;;;;;;;
2023/03/27 12:31:23;;;;;;;5.03;3.63;;;;;;;19.02;39.01;97456.94;6166775;23;20021;-95
2023/03/27 12:33:53;;;;;;;5.22;2.92;;;;;;;19.39;38.32;97475.28;6016384;23;20094;-90
2023/03/27 12:36:23;;;;;;;5.15;4.03;;;;;;;19.37;38.62;97461.25;6129065;23;20025;-89
2023/03/27 12:39:03;;;;;;;5.97;3.38;;;;;;;19.43;38.34;97462.47;6135075;23;20001;-89
2023/03/27 12:41:50;;;;;;;5.05;3.20;;;;;;;19.10;38.71;97436.00;6113766;23;20069;-89
2023/03/27 12:54:18;;;;;;;7.07;3.65;;;;;;;19.28;38.53;97447.91;6048631;23;20021;-90
2023/03/27 13:00:22;;;;;;;5.82;3.78;;;;;;;19.35;38.35;97420.66;6028936;23;20035;-89
2023/03/27 13:02:53;;;;;;;4.57;3.22;;;;;;;19.50;38.53;97443.44;6001385;23;20007;-90
2023/03/27 13:05:23;;;;;;;5.68;3.70;;;;;;;19.49;38.25;97462.94;6123277;23;20005;-90
2023/03/27 13:07:55;;;;;;;5.35;3.58;;;;;;;19.17;39.04;97509.72;6134570;23;20428;-89
2023/03/27 13:10:46;;;;;;;6.35;1.88;;;;;;;18.53;41.57;97512.34;6159837;23;20025;-91
2023/03/27 13:13:39;;;;;;;4.07;2.25;;;;;;;18.01;45.26;97524.75;6158133;23;20005;-89
2023/03/27 13:16:32;;;;;;;3.95;1.80;;;;;;;16.53;48.97;97516.31;6161128;23;20013;-88
2023/03/27 13:19:33;;;;;;;3.13;2.45;;;;;;;16.23;52.52;97529.59;6135566;23;20005;-90
2023/03/27 13:22:26;;;;;;;5.25;2.30;;;;;;;15.96;55.65;97525.84;6157686;23;20013;-89
2023/03/27 13:25:26;;;;;;;3.47;2.40;;;;;;;15.38;58.16;97531.63;6126412;23;20032;-89
2023/03/27 13:28:10;;;;;;;4.13;2.17;;;;;;;15.20;59.68;97533.84;6105109;23;20006;-90
2023/03/27 13:30:48;;;;;;;7.03;2.95;;;;;;;15.05;62.39;97516.38;6103650;23;20001;-88
2023/03/27 13:33:16;;;;;;;8.30;2.30;;;;;;;14.44;62.96;97483.97;6079309;23;20084;-89
2023/03/27 13:36:00;;;;;;;2.17;1.65;;;;;;;14.36;62.90;97512.75;6080062;23;20010;-90
2023/03/27 13:38:58;;;;;;;7.10;2.20;;;;;;;13.80;65.01;97534.91;6106901;23;20392;-89
2023/03/27 13:41:45;;;;;;;3.72;2.58;;;;;;;13.56;67.11;97538.31;6106331;23;20004;-88
2023/03/27 13:44:29;;;;;;;6.45;3.10;;;;;;;13.59;67.58;97507.91;6128281;23;20429;-89
2023/03/27 13:47:08;;;;;;;8.50;2.70;;;;;;;13.42;68.32;97478.34;6102813;23;20010;-88
2023/03/27 13:49:59;;;;;;;3.75;2.20;;;;;;;13.10;68.16;97456.38;6104462;23;20010;-88
2023/03/27 13:52:59;;;;;;;5.55;2.58;;;;;;;13.13;69.93;97497.00;6102768;23;20006;-89
2023/03/27 13:55:47;;;;;;;5.10;2.63;;;;;;;13.11;68.22;97518.19;6111782;23;20385;-90
2023/03/27 13:58:44;;;;;;;5.50;3.10;;;;;;;13.08;68.31;97550.47;6109347;23;20460;-90